Time;durP1;ratioP1;P1;durP2;ratioP2;P2;SDS_P1;SDS_P2;PMS_P1;PMS_P2;Temp;Humidity;BMP_temperature;BMP_pressure;BME280_temperature;BME280_humidity;BME280_pressure;Samples;Min_cycle;Max_cycle;Signal;HPM_P1;HPM_P2
2021/07/17 00:01:06;;;;;;;3.53;1.65;;;;;;;;;;5054524;28;20017;-51
2021/07/17 00:03:31;;;;;;;4.30;1.50;;;;;;;;;;5054395;28;20032;-52
2021/07/17 00:05:56;;;;;;;1.75;1.42;;;;;;;;;;5054343;28;20490;-52
2021/07/17 00:08:21;;;;;;;6.15;1.35;;;;;;;;;;5054374;28;20028;-52
2021/07/17 00:10:48;;;;;;;2.38;1.40;;;;;;;;;;5054452;28;20029;-52
2021/07/17 00:13:14;;;;;;;2.17;1.50;;;;;;;;;;5054224;28;20100;-53
2021/07/17 00:15:39;;;;;;;3.83;1.52;;;;;;;;;;5054227;28;20636;-52
2021/07/17 00:18:04;;;;;;;1.92;1.73;;;;;;;;;;5054307;28;20108;-53
2021/07/17 00:20:30;;;;;;;4.75;1.45;;;;;;;;;;5052339;28;20108;-53
2021/07/17 00:22:55;;;;;;;1.85;1.25;;;;;;;;;;5054048;28;20040;-52
2021/07/17 00:25:22;;;;;;;2.92;1.50;;;;;;;;;;5053986;28;20025;-53
2021/07/17 00:27:47;;;;;;;3.55;1.20;;;;;;;;;;5054291;28;20021;-52
2021/07/17 00:30:14;;;;;;;4.55;1.63;;;;;;;;;;5069382;28;20025;-52
2021/07/17 00:32:39;;;;;;;2.10;1.30;;;;;;;;;;5053917;28;20444;-53
2021/07/17 00:35:05;;;;;;;3.53;0.75;;;;;;;;;;5052606;28;20112;-53
2021/07/17 00:37:31;;;;;;;1.45;1.17;;;;;;;;;;5053796;28;20021;-53
2021/07/17 00:39:56;;;;;;;9.50;1.50;;;;;;;;;;5053794;28;20100;-52
2021/07/17 00:42:21;;;;;;;2.17;1.90;;;;;;;;;;5053667;28;20039;-52
2021/07/17 00:44:47;;;;;;;1.60;1.25;;;;;;;;;;5053599;28;20056;-53
2021/07/17 00:47:14;;;;;;;1.42;1.10;;;;;;;;;;5053630;28;20047;-52
2021/07/17 00:49:39;;;;;;;4.93;1.58;;;;;;;;;;5053689;28;20029;-52
2021/07/17 00:52:05;;;;;;;2.97;1.10;;;;;;;;;;5053455;28;20469;-54
2021/07/17 00:54:31;;;;;;;7.63;1.33;;;;;;;;;;5053366;28;20056;-53
2021/07/17 00:56:57;;;;;;;5.60;1.20;;;;;;;;;;5053692;28;20107;-52
2021/07/17 00:59:24;;;;;;;2.05;1.13;;;;;;;;;;5053441;28;20027;-52
2021/07/17 01:01:52;;;;;;;5.85;1.60;;;;;;;;;;5053270;28;20021;-52
2021/07/17 01:04:18;;;;;;;2.20;1.33;;;;;;;;;;5053230;28;20124;-52
2021/07/17 01:06:44;;;;;;;2.15;1.40;;;;;;;;;;5053380;28;20028;-52
2021/07/17 01:09:09;;;;;;;2.85;1.45;;;;;;;;;;5053100;28;20033;-52
2021/07/17 01:11:35;;;;;;;2.63;1.23;;;;;;;;;;5053260;28;20021;-52
2021/07/17 01:14:01;;;;;;;1.58;1.10;;;;;;;;;;5053468;28;20460;-52
2021/07/17 01:16:26;;;;;;;4.10;1.55;;;;;;;;;;5053222;28;20069;-53
2021/07/17 01:18:52;;;;;;;1.52;1.08;;;;;;;;;;5053409;28;20036;-52
2021/07/17 01:21:18;;;;;;;1.77;1.20;;;;;;;;;;5052882;28;20019;-52
2021/07/17 01:23:43;;;;;;;1.65;1.05;;;;;;;;;;5052784;28;20041;-54
2021/07/17 01:26:09;;;;;;;1.42;1.20;;;;;;;;;;5051686;28;20017;-52
2021/07/17 01:28:36;;;;;;;1.98;1.27;;;;;;;;;;5053082;28;20036;-51
2021/07/17 01:31:01;;;;;;;1.73;1.40;;;;;;;;;;5052522;28;20391;-52
2021/07/17 01:33:27;;;;;;;2.72;2.05;;;;;;;;;;5052120;28;20048;-52
2021/07/17 01:35:52;;;;;;;4.90;1.23;;;;;;;;;;5052813;28;20017;-52
2021/07/17 01:38:18;;;;;;;1.05;1.00;;;;;;;;;;5052628;28;20021;-52
2021/07/17 01:40:47;;;;;;;3.03;1.35;;;;;;;;;;5052668;28;20021;-52
2021/07/17 01:43:13;;;;;;;2.78;1.48;;;;;;;;;;5052520;28;20043;-52
2021/07/17 01:45:39;;;;;;;4.05;1.50;;;;;;;;;;5052517;28;20038;-52
2021/07/17 01:48:05;;;;;;;1.60;1.17;;;;;;;;;;5052895;28;20111;-52
2021/07/17 01:50:31;;;;;;;1.52;1.05;;;;;;;;;;5052501;28;20179;-52
2021/07/17 01:52:57;;;;;;;4.35;1.95;;;;;;;;;;5052680;28;20029;-52
2021/07/17 01:55:22;;;;;;;2.38;2.08;;;;;;;;;;5052412;28;20048;-52
2021/07/17 01:57:48;;;;;;;2.47;2.28;;;;;;;;;;5052717;28;20028;-52
2021/07/17 02:00:14;;;;;;;3.92;2.70;;;;;;;;;;5052250;28;20490;-52
2021/07/17 02:02:40;;;;;;;3.42;2.08;;;;;;;;;;5052340;28;20476;-51
2021/07/17 02:05:05;;;;;;;5.80;2.25;;;;;;;;;;5052487;28;20111;-52
2021/07/17 02:07:31;;;;;;;4.22;1.95;;;;;;;;;;5052303;28;20422;-52
2021/07/17 02:09:57;;;;;;;4.40;2.00;;;;;;;;;;5052605;28;20017;-52
2021/07/17 02:12:23;;;;;;;6.32;1.85;;;;;;;;;;5052188;28;20021;-52
2021/07/17 02:14:49;;;;;;;6.63;2.28;;;;;;;;;;5052522;28;20379;-51
2021/07/17 02:17:14;;;;;;;4.93;1.90;;;;;;;;;;5052086;28;20037;-52
2021/07/17 02:19:40;;;;;;;3.75;2.20;;;;;;;;;;5052208;28;20021;-52
2021/07/17 02:22:05;;;;;;;2.50;1.60;;;;;;;;;;5052416;28;20036;-52
2021/07/17 02:24:30;;;;;;;3.10;1.73;;;;;;;;;;5034201;28;20082;-53
2021/07/17 02:26:56;;;;;;;2.60;1.80;;;;;;;;;;5052429;28;20365;-51
2021/07/17 02:29:21;;;;;;;3.85;1.40;;;;;;;;;;5052075;28;20021;-52
2021/07/17 02:31:47;;;;;;;2.50;1.20;;;;;;;;;;5052075;28;20120;-52
2021/07/17 02:34:13;;;;;;;1.88;1.55;;;;;;;;;;5051929;28;20025;-51
2021/07/17 02:36:38;;;;;;;2.03;1.10;;;;;;;;;;5052034;28;20033;-52
2021/07/17 02:39:04;;;;;;;1.00;0.90;;;;;;;;;;5052140;28;20021;-52
2021/07/17 02:41:30;;;;;;;1.73;1.10;;;;;;;;;;5051860;28;20067;-53
2021/07/17 02:43:56;;;;;;;1.95;1.33;;;;;;;;;;5054207;28;20060;-52
2021/07/17 02:46:21;;;;;;;1.95;1.38;;;;;;;;;;5056177;28;20078;-51
2021/07/17 02:48:46;;;;;;;3.42;1.48;;;;;;;;;;5055824;28;20021;-52
2021/07/17 02:51:12;;;;;;;2.55;1.08;;;;;;;;;;5055891;28;20048;-51
2021/07/17 02:53:38;;;;;;;2.05;1.55;;;;;;;;;;5055845;28;20495;-52
2021/07/17 02:56:03;;;;;;;4.25;0.98;;;;;;;;;;5055705;28;20029;-52
2021/07/17 02:58:28;;;;;;;1.30;1.13;;;;;;;;;;5054499;28;20455;-52
2021/07/17 03:00:54;;;;;;;1.40;1.00;;;;;;;;;;5056026;28;20251;-52
2021/07/17 03:03:20;;;;;;;1.85;1.10;;;;;;;;;;5055497;28;20025;-52
2021/07/17 03:05:46;;;;;;;1.98;1.35;;;;;;;;;;5055849;28;20082;-53
2021/07/17 03:08:14;;;;;;;3.60;1.35;;;;;;;;;;5055443;28;20032;-52
2021/07/17 03:10:39;;;;;;;2.20;1.20;;;;;;;;;;5055520;28;20021;-52
2021/07/17 03:13:04;;;;;;;2.42;1.20;;;;;;;;;;5055540;28;20459;-52
2021/07/17 03:15:30;;;;;;;2.10;1.40;;;;;;;;;;5055349;28;20029;-52
2021/07/17 03:17:55;;;;;;;1.60;1.17;;;;;;;;;;5055314;28;20099;-52
2021/07/17 03:20:21;;;;;;;2.22;1.38;;;;;;;;;;5055179;28;20029;-52
2021/07/17 03:22:46;;;;;;;3.25;1.40;;;;;;;;;;5055231;28;20033;-51
2021/07/17 03:25:12;;;;;;;2.58;1.40;;;;;;;;;;5055133;28;20029;-51
2021/07/17 03:27:37;;;;;;;4.13;1.23;;;;;;;;;;5055377;28;20096;-52
2021/07/17 03:30:04;;;;;;;8.05;2.08;;;;;;;;;;5055196;28;20017;-52
2021/07/17 03:32:29;;;;;;;2.53;1.88;;;;;;;;;;5054843;28;20071;-53
2021/07/17 03:34:55;;;;;;;2.95;1.70;;;;;;;;;;5055094;28;20036;-52
2021/07/17 03:37:20;;;;;;;8.80;1.85;;;;;;;;;;5054990;28;20017;-52
2021/07/17 03:39:46;;;;;;;8.05;1.90;;;;;;;;;;5054832;28;20094;-52
2021/07/17 03:42:11;;;;;;;2.10;1.27;;;;;;;;;;5055025;28;20054;-52
2021/07/17 03:44:36;;;;;;;3.72;1.75;;;;;;;;;;5053603;28;20029;-52
2021/07/17 03:47:02;;;;;;;2.15;1.50;;;;;;;;;;5054836;28;20022;-52
2021/07/17 03:49:28;;;;;;;4.72;2.22;;;;;;;;;;5054737;28;20025;-52
2021/07/17 03:51:53;;;;;;;5.75;1.65;;;;;;;;;;5054588;28;20052;-52
2021/07/17 03:54:20;;;;;;;5.07;1.70;;;;;;;;;;5053862;28;20053;-52
2021/07/17 03:56:45;;;;;;;4.70;1.35;;;;;;;;;;5054336;28;20021;-52
2021/07/17 03:59:11;;;;;;;6.75;1.40;;;;;;;;;;5054835;28;20436;-51
2021/07/17 04:01:36;;;;;;;5.50;1.40;;;;;;;;;;5054688;28;20112;-53
2021/07/17 04:04:03;;;;;;;4.90;1.48;;;;;;;;;;5054456;28;20036;-52
2021/07/17 04:06:28;;;;;;;3.17;1.35;;;;;;;;;;5054654;28;20104;-52
2021/07/17 04:08:54;;;;;;;7.97;1.90;;;;;;;;;;5054631;28;20071;-52
2021/07/17 04:11:19;;;;;;;4.57;1.42;;;;;;;;;;5054527;28;20059;-52
2021/07/17 04:13:44;;;;;;;2.55;1.75;;;;;;;;;;5054593;28;20029;-52
2021/07/17 04:16:09;;;;;;;2.60;1.63;;;;;;;;;;5054267;28;20017;-52
2021/07/17 04:18:35;;;;;;;2.85;1.90;;;;;;;;;;5054233;28;20033;-53
2021/07/17 04:21:00;;;;;;;5.82;1.67;;;;;;;;;;5054158;28;20025;-52
2021/07/17 04:23:26;;;;;;;2.53;1.27;;;;;;;;;;5053990;28;20034;-52
2021/07/17 04:25:52;;;;;;;3.50;1.40;;;;;;;;;;5054393;28;20162;-53
2021/07/17 04:28:17;;;;;;;5.10;1.45;;;;;;;;;;5053959;28;20094;-52
2021/07/17 04:30:43;;;;;;;4.13;1.30;;;;;;;;;;5054309;28;20017;-52
2021/07/17 04:33:08;;;;;;;2.53;1.52;;;;;;;;;;5052798;28;20032;-52
2021/07/17 04:35:34;;;;;;;3.53;1.30;;;;;;;;;;5053730;28;20021;-52
2021/07/17 04:37:59;;;;;;;2.92;1.58;;;;;;;;;;5053922;28;20029;-51
2021/07/17 04:40:25;;;;;;;2.05;1.58;;;;;;;;;;5069212;28;20012;-51
2021/07/17 04:42:50;;;;;;;4.13;1.23;;;;;;;;;;5069022;28;20037;-52
2021/07/17 04:45:16;;;;;;;1.58;1.00;;;;;;;;;;5053922;28;20013;-52
2021/07/17 04:47:41;;;;;;;5.22;1.63;;;;;;;;;;5053968;28;20029;-52
2021/07/17 04:50:07;;;;;;;2.33;1.42;;;;;;;;;;5053463;28;20514;-52
2021/07/17 04:52:33;;;;;;;4.38;1.00;;;;;;;;;;5052353;28;20048;-52
2021/07/17 04:54:58;;;;;;;2.25;1.02;;;;;;;;;;5053412;28;20468;-51
2021/07/17 04:57:24;;;;;;;4.55;1.65;;;;;;;;;;5053351;28;20037;-52
2021/07/17 04:59:49;;;;;;;2.13;1.15;;;;;;;;;;5053561;28;20015;-51
2021/07/17 05:02:15;;;;;;;2.80;1.10;;;;;;;;;;5053475;28;20387;-52
2021/07/17 05:04:40;;;;;;;4.38;1.20;;;;;;;;;;5053346;28;20158;-51
2021/07/17 05:07:05;;;;;;;2.10;1.05;;;;;;;;;;5053187;28;20052;-52
2021/07/17 05:09:31;;;;;;;3.05;1.27;;;;;;;;;;5053502;28;20024;-52
2021/07/17 05:11:56;;;;;;;4.43;1.00;;;;;;;;;;5053247;28;20418;-52
2021/07/17 05:14:21;;;;;;;1.83;1.40;;;;;;;;;;5068446;28;20044;-52
2021/07/17 05:16:47;;;;;;;1.73;1.55;;;;;;;;;;5052870;28;20032;-53
2021/07/17 05:19:12;;;;;;;5.32;1.33;;;;;;;;;;5053318;28;20047;-52
2021/07/17 05:21:38;;;;;;;2.58;0.82;;;;;;;;;;5053291;28;20509;-53
2021/07/17 05:24:04;;;;;;;3.08;1.30;;;;;;;;;;5052981;28;20029;-52
2021/07/17 05:26:29;;;;;;;2.10;0.93;;;;;;;;;;5053015;28;20063;-53
2021/07/17 05:28:54;;;;;;;3.75;1.17;;;;;;;;;;5051690;28;20029;-53
2021/07/17 05:31:20;;;;;;;1.92;1.58;;;;;;;;;;5052863;28;20096;-52
2021/07/17 05:33:45;;;;;;;8.57;1.08;;;;;;;;;;5052703;28;20017;-52
2021/07/17 05:36:11;;;;;;;1.70;1.08;;;;;;;;;;5068262;28;20025;-52
2021/07/17 05:38:37;;;;;;;2.10;1.33;;;;;;;;;;5052652;28;20025;-53
2021/07/17 05:41:02;;;;;;;1.63;1.05;;;;;;;;;;5052733;28;20033;-52
2021/07/17 05:43:27;;;;;;;1.73;1.00;;;;;;;;;;5052646;28;20074;-52
2021/07/17 05:45:54;;;;;;;1.17;1.05;;;;;;;;;;5052485;28;20475;-53
2021/07/17 05:48:20;;;;;;;2.17;1.48;;;;;;;;;;5052616;28;20017;-52
2021/07/17 05:50:47;;;;;;;2.70;1.20;;;;;;;;;;5052382;28;20032;-52
2021/07/17 05:53:13;;;;;;;2.10;1.42;;;;;;;;;;5052832;28;20020;-52
2021/07/17 05:55:38;;;;;;;1.88;1.10;;;;;;;;;;5052492;28;20501;-51
2021/07/17 05:58:04;;;;;;;4.43;1.20;;;;;;;;;;5052440;28;20017;-52
2021/07/17 06:00:29;;;;;;;1.40;1.00;;;;;;;;;;5052621;28;20103;-52
2021/07/17 06:02:55;;;;;;;1.17;0.93;;;;;;;;;;5052382;28;20041;-51
2021/07/17 06:05:20;;;;;;;5.80;1.30;;;;;;;;;;5052259;28;20108;-52
2021/07/17 06:07:45;;;;;;;1.85;1.02;;;;;;;;;;5052350;28;20021;-53
2021/07/17 06:10:11;;;;;;;3.83;1.25;;;;;;;;;;5052277;28;20025;-52
2021/07/17 06:12:36;;;;;;;2.45;1.00;;;;;;;;;;5052245;28;20477;-51
2021/07/17 06:15:02;;;;;;;7.03;1.65;;;;;;;;;;5052492;28;20032;-52
2021/07/17 06:17:28;;;;;;;1.20;1.10;;;;;;;;;;5051740;28;20086;-52
2021/07/17 06:19:53;;;;;;;2.45;1.20;;;;;;;;;;5052178;28;20045;-52
2021/07/17 06:22:18;;;;;;;1.70;1.08;;;;;;;;;;5051916;28;20028;-52
2021/07/17 06:24:44;;;;;;;5.80;0.95;;;;;;;;;;5052487;28;20033;-52
2021/07/17 06:27:09;;;;;;;2.25;1.23;;;;;;;;;;5052251;28;20657;-51
2021/07/17 06:29:35;;;;;;;4.68;1.27;;;;;;;;;;5052018;28;20021;-51
2021/07/17 06:32:01;;;;;;;1.13;1.00;;;;;;;;;;5052174;28;20018;-52
2021/07/17 06:34:27;;;;;;;1.77;1.20;;;;;;;;;;5051959;28;20036;-52
2021/07/17 06:36:53;;;;;;;5.10;1.70;;;;;;;;;;5052049;28;20024;-52
2021/07/17 06:39:19;;;;;;;2.90;1.13;;;;;;;;;;5067446;28;20094;-51
2021/07/17 06:41:44;;;;;;;1.55;0.90;;;;;;;;;;5052205;28;20459;-53
2021/07/17 06:44:10;;;;;;;2.05;1.40;;;;;;;;;;5052177;28;20380;-52
2021/07/17 06:46:35;;;;;;;2.58;1.25;;;;;;;;;;5050791;28;20024;-52
2021/07/17 06:49:00;;;;;;;0.70;0.70;;;;;;;;;;5052250;28;20025;-53
2021/07/17 06:51:26;;;;;;;4.85;1.05;;;;;;;;;;5050342;28;20049;-52
2021/07/17 06:53:51;;;;;;;3.92;1.00;;;;;;;;;;5051829;28;20094;-51
2021/07/17 06:56:17;;;;;;;1.65;1.52;;;;;;;;;;5051863;28;20056;-51
2021/07/17 06:58:43;;;;;;;1.63;0.95;;;;;;;;;;5051844;28;20083;-52
2021/07/17 07:01:08;;;;;;;3.03;1.83;;;;;;;;;;5051819;28;20020;-52
2021/07/17 07:03:33;;;;;;;1.45;1.20;;;;;;;;;;5067090;28;20048;-52
2021/07/17 07:05:59;;;;;;;2.97;1.23;;;;;;;;;;5051788;28;20024;-52
2021/07/17 07:08:25;;;;;;;1.40;0.68;;;;;;;;;;5051748;28;20032;-52
2021/07/17 07:10:51;;;;;;;0.90;0.82;;;;;;;;;;5051762;28;20376;-53
2021/07/17 07:13:17;;;;;;;1.40;0.80;;;;;;;;;;5051551;28;20040;-52
2021/07/17 07:15:42;;;;;;;1.45;1.15;;;;;;;;;;5051827;28;20100;-52
2021/07/17 07:18:08;;;;;;;1.23;1.00;;;;;;;;;;5051762;28;20032;-52
2021/07/17 07:20:34;;;;;;;1.50;1.00;;;;;;;;;;5051512;28;20089;-52
2021/07/17 07:22:59;;;;;;;2.55;1.10;;;;;;;;;;5051896;28;20472;-53
2021/07/17 07:25:25;;;;;;;1.35;1.15;;;;;;;;;;5051388;28;20021;-52
2021/07/17 07:27:50;;;;;;;1.23;0.85;;;;;;;;;;5051692;28;20065;-52
2021/07/17 07:30:16;;;;;;;1.20;1.05;;;;;;;;;;5052603;28;20074;-52
2021/07/17 07:32:41;;;;;;;1.38;1.05;;;;;;;;;;5055080;28;20036;-52
2021/07/17 07:35:07;;;;;;;1.42;0.98;;;;;;;;;;5055086;28;20044;-52
2021/07/17 07:37:32;;;;;;;0.90;0.90;;;;;;;;;;5055291;28;20532;-53
2021/07/17 07:39:58;;;;;;;1.13;1.02;;;;;;;;;;5055080;28;20013;-52
2021/07/17 07:42:23;;;;;;;1.83;1.23;;;;;;;;;;5055154;28;20068;-53
2021/07/17 07:44:49;;;;;;;1.30;1.13;;;;;;;;;;5055092;28;20436;-53
2021/07/17 07:47:15;;;;;;;3.05;1.10;;;;;;;;;;5055145;28;20029;-52
2021/07/17 07:49:41;;;;;;;1.42;0.98;;;;;;;;;;5055008;28;20025;-52
2021/07/17 07:52:07;;;;;;;1.35;1.20;;;;;;;;;;5054608;28;20052;-53
2021/07/17 07:54:33;;;;;;;3.90;1.05;;;;;;;;;;5054602;28;20120;-52
2021/07/17 07:56:58;;;;;;;5.25;1.40;;;;;;;;;;5054635;28;20563;-52
2021/07/17 07:59:24;;;;;;;3.47;1.20;;;;;;;;;;5054563;28;20024;-52
2021/07/17 08:01:49;;;;;;;4.50;0.85;;;;;;;;;;5054497;28;20100;-51
2021/07/17 08:04:14;;;;;;;4.22;1.20;;;;;;;;;;5054432;28;20090;-51
2021/07/17 08:06:40;;;;;;;3.42;1.02;;;;;;;;;;5054546;28;20111;-53
2021/07/17 08:09:05;;;;;;;1.50;1.17;;;;;;;;;;5054606;28;20055;-53
2021/07/17 08:11:30;;;;;;;5.85;1.25;;;;;;;;;;5054622;28;20060;-53
2021/07/17 08:13:56;;;;;;;1.05;0.93;;;;;;;;;;5054659;28;20021;-53
2021/07/17 08:16:21;;;;;;;2.90;1.23;;;;;;;;;;5052903;28;20028;-52
2021/07/17 08:18:47;;;;;;;1.60;1.02;;;;;;;;;;5054275;28;20028;-52
2021/07/17 08:21:12;;;;;;;1.38;1.23;;;;;;;;;;5054263;28;20035;-52
2021/07/17 08:23:37;;;;;;;2.72;0.95;;;;;;;;;;5053877;28;20455;-52
2021/07/17 08:26:03;;;;;;;6.63;1.30;;;;;;;;;;5054473;28;20029;-52
2021/07/17 08:28:28;;;;;;;4.93;1.27;;;;;;;;;;5054021;28;20375;-51
2021/07/17 08:30:54;;;;;;;1.55;1.20;;;;;;;;;;5054337;28;20080;-52
2021/07/17 08:33:19;;;;;;;1.15;0.98;;;;;;;;;;5053940;28;20021;-52
2021/07/17 08:35:45;;;;;;;1.88;1.15;;;;;;;;;;5053936;28;20399;-51
2021/07/17 08:38:10;;;;;;;1.67;1.35;;;;;;;;;;5054199;28;20426;-52
2021/07/17 08:40:36;;;;;;;3.28;1.30;;;;;;;;;;5053249;28;20028;-52
2021/07/17 08:43:01;;;;;;;4.50;1.73;;;;;;;;;;5053804;28;20032;-52
2021/07/17 08:45:27;;;;;;;5.93;1.50;;;;;;;;;;5053558;28;20036;-52
2021/07/17 08:47:53;;;;;;;3.40;1.23;;;;;;;;;;5053683;28;20021;-52
2021/07/17 08:50:22;;;;;;;2.47;1.30;;;;;;;;;;5053446;28;20044;-52
2021/07/17 08:52:52;;;;;;;3.40;1.48;;;;;;;;;;5053849;28;20472;-53
2021/07/17 08:55:17;;;;;;;4.35;1.42;;;;;;;;;;5053770;28;20029;-53
2021/07/17 08:57:43;;;;;;;1.27;1.17;;;;;;;;;;5053576;28;20028;-52
2021/07/17 09:00:14;;;;;;;1.27;0.95;;;;;;;;;;5068711;28;20025;-52
2021/07/17 09:02:42;;;;;;;3.97;1.25;;;;;;;;;;5053318;28;20043;-52
2021/07/17 09:05:08;;;;;;;1.50;1.23;;;;;;;;;;5051984;28;20024;-52
2021/07/17 09:07:33;;;;;;;1.55;1.05;;;;;;;;;;5053229;28;20537;-52
2021/07/17 09:09:58;;;;;;;3.92;1.20;;;;;;;;;;5053260;28;20017;-53
2021/07/17 09:12:24;;;;;;;2.22;1.13;;;;;;;;;;5053094;28;20064;-53
2021/07/17 09:14:50;;;;;;;2.47;1.15;;;;;;;;;;5053207;28;20062;-52
2021/07/17 09:17:26;;;;;;;2.83;1.15;;;;;;;;;;5053110;28;20467;-53
2021/07/17 09:19:59;;;;;;;1.50;1.20;;;;;;;;;;5053094;28;20434;-53
2021/07/17 09:22:35;;;;;;;1.60;1.27;;;;;;;;;;5052784;28;20476;-53
2021/07/17 09:25:05;;;;;;;4.05;1.20;;;;;;;;;;5053337;28;20056;-52
2021/07/17 09:27:30;;;;;;;1.48;1.15;;;;;;;;;;5052902;28;20033;-52
2021/07/17 09:29:55;;;;;;;0.80;0.73;;;;;;;;;;5052980;28;20044;-53
2021/07/17 09:32:21;;;;;;;1.27;1.13;;;;;;;;;;5052822;28;20108;-53
2021/07/17 09:34:46;;;;;;;3.42;1.38;;;;;;;;;;5052799;28;20032;-53
2021/07/17 09:37:11;;;;;;;3.95;1.30;;;;;;;;;;5053192;28;20459;-52
2021/07/17 09:39:37;;;;;;;2.20;1.48;;;;;;;;;;5052623;28;20455;-53
2021/07/17 09:42:07;;;;;;;1.60;1.17;;;;;;;;;;5052675;28;20017;-52
2021/07/17 09:44:33;;;;;;;1.50;1.13;;;;;;;;;;5052848;28;20037;-53
2021/07/17 09:46:59;;;;;;;4.47;1.42;;;;;;;;;;5052943;28;20070;-52
2021/07/17 09:49:26;;;;;;;1.30;1.10;;;;;;;;;;5052582;28;20037;-52
2021/07/17 09:52:11;;;;;;;1.73;1.25;;;;;;;;;;5052288;28;20045;-54
2021/07/17 09:54:37;;;;;;;1.98;1.17;;;;;;;;;;5052117;28;20568;-52
2021/07/17 09:57:03;;;;;;;1.40;0.95;;;;;;;;;;5052453;28;20017;-52
2021/07/17 09:59:28;;;;;;;2.17;1.20;;;;;;;;;;5052449;28;20112;-53
2021/07/17 10:01:54;;;;;;;2.45;0.80;;;;;;;;;;5052342;28;20075;-52
2021/07/17 10:04:19;;;;;;;5.82;1.00;;;;;;;;;;5052207;28;20035;-52
2021/07/17 10:06:46;;;;;;;1.33;1.00;;;;;;;;;;5052716;28;20021;-52
2021/07/17 10:09:14;;;;;;;1.40;1.20;;;;;;;;;;5052250;28;20032;-52
2021/07/17 10:11:44;;;;;;;2.47;1.02;;;;;;;;;;5052305;28;20491;-53
2021/07/17 10:14:21;;;;;;;1.02;0.80;;;;;;;;;;5052369;28;20029;-53
2021/07/17 10:16:48;;;;;;;1.85;0.93;;;;;;;;;;5052348;28;20124;-52
2021/07/17 10:19:15;;;;;;;2.33;0.85;;;;;;;;;;5052207;28;20024;-52
2021/07/17 10:21:40;;;;;;;1.25;0.95;;;;;;;;;;5052417;28;20025;-53
2021/07/17 10:24:06;;;;;;;0.63;0.50;;;;;;;;;;5052365;28;20086;-52
2021/07/17 10:26:32;;;;;;;1.00;0.85;;;;;;;;;;5052319;28;20025;-53
2021/07/17 10:29:01;;;;;;;0.52;0.50;;;;;;;;;;5052233;28;20021;-53
2021/07/17 10:31:26;;;;;;;1.02;0.80;;;;;;;;;;5067469;28;20035;-53
2021/07/17 10:33:53;;;;;;;0.85;0.80;;;;;;;;;;5051157;28;20359;-52
2021/07/17 10:36:20;;;;;;;1.05;0.60;;;;;;;;;;5052065;28;20495;-53
2021/07/17 10:38:48;;;;;;;0.85;0.57;;;;;;;;;;5052233;28;20017;-53
2021/07/17 10:41:14;;;;;;;1.45;0.68;;;;;;;;;;5052369;28;20024;-53
2021/07/17 10:43:40;;;;;;;1.65;0.55;;;;;;;;;;5051740;28;20475;-54
2021/07/17 10:46:24;;;;;;;0.88;0.60;;;;;;;;;;5051895;28;20529;-52
2021/07/17 10:48:53;;;;;;;1.05;0.63;;;;;;;;;;5052000;28;20118;-53
2021/07/17 10:51:29;;;;;;;2.03;0.65;;;;;;;;;;5050489;28;20077;-52
2021/07/17 10:53:58;;;;;;;0.60;0.50;;;;;;;;;;5051966;28;20033;-54
2021/07/17 10:56:29;;;;;;;0.68;0.60;;;;;;;;;;5050948;28;20122;-53
2021/07/17 10:59:00;;;;;;;1.38;0.80;;;;;;;;;;5051784;28;20025;-53
2021/07/17 11:01:26;;;;;;;1.38;0.80;;;;;;;;;;5051774;28;20029;-54
2021/07/17 11:03:53;;;;;;;0.60;0.52;;;;;;;;;;5050969;28;20036;-52
2021/07/17 11:06:28;;;;;;;3.17;0.60;;;;;;;;;;5070886;28;20468;-53
2021/07/17 11:08:55;;;;;;;0.40;0.38;;;;;;;;;;5055580;28;20044;-53
2021/07/17 11:11:26;;;;;;;0.80;0.80;;;;;;;;;;5055507;28;20020;-53
2021/07/17 11:13:52;;;;;;;3.40;0.60;;;;;;;;;;5055462;28;20605;-53
2021/07/17 11:16:37;;;;;;;0.98;0.70;;;;;;;;;;5055431;28;20027;-53
2021/07/17 11:19:31;;;;;;;0.70;0.70;;;;;;;;;;5055518;28;20025;-53
2021/07/17 11:22:08;;;;;;;0.30;0.30;;;;;;;;;;5050649;28;20048;-54
2021/07/17 11:24:33;;;;;;;0.85;0.73;;;;;;;;;;5055207;28;20040;-53
2021/07/17 11:27:13;;;;;;;0.90;0.70;;;;;;;;;;5054104;28;20021;-54
2021/07/17 11:29:43;;;;;;;0.98;0.77;;;;;;;;;;5070444;28;20112;-53
2021/07/17 11:32:09;;;;;;;0.52;0.52;;;;;;;;;;5055270;28;20025;-53
2021/07/17 11:34:36;;;;;;;2.80;0.70;;;;;;;;;;5054020;28;20041;-53
2021/07/17 11:37:06;;;;;;;2.03;1.30;;;;;;;;;;5055092;28;20017;-53
2021/07/17 11:39:33;;;;;;;1.17;0.60;;;;;;;;;;5055241;28;20032;-54
2021/07/17 11:41:59;;;;;;;1.20;0.65;;;;;;;;;;5054669;28;20052;-53
2021/07/17 11:44:29;;;;;;;0.73;0.40;;;;;;;;;;5054902;28;20033;-53
2021/07/17 11:47:07;;;;;;;0.63;0.40;;;;;;;;;;5053616;28;20480;-53
2021/07/17 11:49:36;;;;;;;3.08;1.25;;;;;;;;;;5054790;28;20502;-53
2021/07/17 11:52:03;;;;;;;1.00;0.68;;;;;;;;;;5070050;28;20045;-53
2021/07/17 11:54:30;;;;;;;1.48;0.50;;;;;;;;;;5054992;28;20112;-54
2021/07/17 11:57:01;;;;;;;1.35;0.55;;;;;;;;;;5054898;28;20383;-54
2021/07/17 11:59:26;;;;;;;0.90;0.60;;;;;;;;;;5054627;28;20530;-54
2021/07/17 12:02:04;;;;;;;0.47;0.40;;;;;;;;;;5054886;28;20021;-54
2021/07/17 12:04:30;;;;;;;0.95;0.60;;;;;;;;;;5054710;28;20051;-53
2021/07/17 12:06:59;;;;;;;1.55;0.47;;;;;;;;;;5054854;28;20459;-54
2021/07/17 12:09:45;;;;;;;0.80;0.60;;;;;;;;;;5054692;28;20041;-53
2021/07/17 12:12:13;;;;;;;1.33;0.68;;;;;;;;;;5054112;28;20549;-55
2021/07/17 12:14:39;;;;;;;0.45;0.43;;;;;;;;;;5054258;28;20032;-53
2021/07/17 12:17:04;;;;;;;0.93;0.82;;;;;;;;;;5053556;28;20036;-54
2021/07/17 12:19:30;;;;;;;0.60;0.40;;;;;;;;;;5054098;28;20021;-53
2021/07/17 12:21:56;;;;;;;4.45;0.60;;;;;;;;;;5054177;28;20041;-54
2021/07/17 12:24:21;;;;;;;2.20;0.70;;;;;;;;;;5053978;28;20086;-54
2021/07/17 12:26:47;;;;;;;1.88;0.60;;;;;;;;;;5052946;28;20124;-52
2021/07/17 12:29:12;;;;;;;1.10;0.57;;;;;;;;;;5054152;28;20017;-52
2021/07/17 12:31:38;;;;;;;1.20;0.57;;;;;;;;;;5052613;28;20033;-53
2021/07/17 12:34:08;;;;;;;0.82;0.45;;;;;;;;;;5053927;28;20024;-54
2021/07/17 12:36:40;;;;;;;1.35;0.70;;;;;;;;;;5053856;28;20033;-54
2021/07/17 12:39:05;;;;;;;3.95;0.60;;;;;;;;;;5054172;28;20107;-53
2021/07/17 12:41:32;;;;;;;1.27;0.57;;;;;;;;;;5054141;28;20640;-54
2021/07/17 12:44:00;;;;;;;4.78;0.68;;;;;;;;;;5053946;28;20060;-53
2021/07/17 12:46:29;;;;;;;1.10;0.80;;;;;;;;;;5053696;28;20037;-53
2021/07/17 12:48:57;;;;;;;2.03;0.73;;;;;;;;;;5053763;28;20045;-54
2021/07/17 12:51:30;;;;;;;0.60;0.57;;;;;;;;;;5053558;28;20045;-54
2021/07/17 12:53:58;;;;;;;1.60;0.73;;;;;;;;;;5053459;28;20046;-53
2021/07/17 12:56:30;;;;;;;2.45;0.63;;;;;;;;;;5053598;28;20488;-53
2021/07/17 12:58:56;;;;;;;2.83;0.80;;;;;;;;;;5035705;28;20029;-53
2021/07/17 13:01:22;;;;;;;1.15;0.80;;;;;;;;;;5053451;28;20036;-53
2021/07/17 13:03:47;;;;;;;1.02;0.68;;;;;;;;;;5053387;28;20128;-54
2021/07/17 13:06:14;;;;;;;2.00;0.68;;;;;;;;;;5053637;28;20017;-53
2021/07/17 13:08:39;;;;;;;4.63;0.68;;;;;;;;;;5053186;28;20037;-54
2021/07/17 13:11:05;;;;;;;1.02;0.73;;;;;;;;;;5053517;28;20021;-54
2021/07/17 13:13:34;;;;;;;1.10;0.85;;;;;;;;;;5053216;28;20473;-54
2021/07/17 13:16:01;;;;;;;0.80;0.60;;;;;;;;;;5053166;28;20048;-54
2021/07/17 13:18:28;;;;;;;3.33;0.73;;;;;;;;;;5053300;28;20032;-52
2021/07/17 13:21:10;;;;;;;0.60;0.40;;;;;;;;;;5053213;28;20460;-53
2021/07/17 13:23:50;;;;;;;1.52;0.90;;;;;;;;;;5051524;28;20048;-54
2021/07/17 13:26:20;;;;;;;4.82;0.80;;;;;;;;;;5053066;28;20029;-53
2021/07/17 13:28:45;;;;;;;1.00;0.90;;;;;;;;;;5053479;28;20414;-53
2021/07/17 13:31:18;;;;;;;1.10;0.75;;;;;;;;;;5053256;28;20052;-54
2021/07/17 13:33:44;;;;;;;2.50;0.60;;;;;;;;;;5052683;28;20021;-53
2021/07/17 13:36:09;;;;;;;0.70;0.70;;;;;;;;;;5052910;28;20025;-53
2021/07/17 13:38:36;;;;;;;1.65;0.77;;;;;;;;;;5052708;28;20379;-52
2021/07/17 13:41:11;;;;;;;0.70;0.70;;;;;;;;;;5052864;28;20024;-53
2021/07/17 13:43:39;;;;;;;1.48;1.00;;;;;;;;;;5052514;28;20044;-54
2021/07/17 13:46:04;;;;;;;1.60;1.17;;;;;;;;;;5052763;28;20013;-53
2021/07/17 13:48:30;;;;;;;1.80;0.77;;;;;;;;;;5052639;28;20036;-54
2021/07/17 13:51:09;;;;;;;1.20;0.77;;;;;;;;;;5052406;28;20399;-54
2021/07/17 13:53:35;;;;;;;4.07;1.00;;;;;;;;;;5052761;28;20379;-53
2021/07/17 13:56:04;;;;;;;2.25;1.17;;;;;;;;;;5052463;28;20029;-54
2021/07/17 13:58:30;;;;;;;0.77;0.65;;;;;;;;;;5052425;28;20036;-53
2021/07/17 14:00:56;;;;;;;1.38;0.57;;;;;;;;;;5052394;28;20024;-52
2021/07/17 14:03:23;;;;;;;0.63;0.50;;;;;;;;;;5052318;28;20044;-53
2021/07/17 14:05:55;;;;;;;0.90;0.73;;;;;;;;;;5052448;28;20071;-54
2021/07/17 14:08:21;;;;;;;3.38;1.10;;;;;;;;;;5051142;28;20033;-54
2021/07/17 14:10:47;;;;;;;1.95;0.82;;;;;;;;;;5052394;28;20083;-54
2021/07/17 14:13:13;;;;;;;0.80;0.80;;;;;;;;;;5052205;28;20499;-53
2021/07/17 14:15:39;;;;;;;1.15;0.70;;;;;;;;;;5052294;28;20017;-54
2021/07/17 14:18:05;;;;;;;2.42;0.65;;;;;;;;;;5052647;28;20035;-53
2021/07/17 14:20:30;;;;;;;2.22;0.80;;;;;;;;;;5052107;28;20009;-54
2021/07/17 14:22:55;;;;;;;1.50;0.60;;;;;;;;;;5052069;28;20052;-54
2021/07/17 14:25:21;;;;;;;1.35;0.80;;;;;;;;;;5052368;28;20013;-54
2021/07/17 14:27:46;;;;;;;0.80;0.60;;;;;;;;;;5052532;28;20060;-54
2021/07/17 14:30:12;;;;;;;0.70;0.70;;;;;;;;;;5052255;28;20025;-54
2021/07/17 14:32:37;;;;;;;2.67;0.82;;;;;;;;;;5050809;28;20104;-53
2021/07/17 14:35:03;;;;;;;1.45;1.13;;;;;;;;;;5052372;28;20025;-54
2021/07/17 14:37:28;;;;;;;3.10;0.85;;;;;;;;;;5050783;28;20501;-54
2021/07/17 14:39:53;;;;;;;0.98;0.90;;;;;;;;;;5054332;28;20433;-54